CPS4 weather

Lucan Airport
Lucan, Ontario, Canada

Public forecast

Using degrees Celsius for public forecast. Weather courtesy of forecast.io.

Closest aviation weather report (METAR) to Lucan Airport

Closest report is London Airport, 13.7 nm (25.3 km) SE. Retrieved 2020/01/21 07:00 UTC (50 minutes ago):

CYXU 210700Z 25007KT 15SM -SHSN OVC027 M06/M10 A3047 RMK SC8 CU EMBD SLP338

Closest aviation forecast (TAF) to Lucan Airport

Closest forecast is London Airport, 13.7 nm (25.3 km) SE. Retrieved 2020/01/21 06:43 UTC (1 hour ago):

TAF CYXU 210541Z 2106/2206 26008KT P6SM -SHSN BKN030 FM211200 26008KT P6SM SCT020 FM220000 23010KT P6SM BKN008 RMK NXT FCST BY 211200Z